Time;durP1;ratioP1;P1;durP2;ratioP2;P2;SDS_P1;SDS_P2;PMS_P1;PMS_P2;Temp;Humidity;BMP_temperature;BMP_pressure;BME280_temperature;BME280_humidity;BME280_pressure;Samples;Min_cycle;Max_cycle;Signal;HPM_P1;HPM_P2
2022/06/18 00:00:36;;;;;;;3.00;2.80;;;27.70;50.10;;;;;;5065183;27;21153;-48
2022/06/18 00:03:16;;;;;;;2.30;2.20;;;27.60;50.00;;;;;;5078964;27;20578;-49
2022/06/18 00:05:58;;;;;;;2.30;2.10;;;27.70;50.20;;;;;;5065148;27;20547;-47
2022/06/18 00:08:39;;;;;;;2.20;2.03;;;27.60;50.10;;;;;;5127768;27;20525;-51
2022/06/18 00:14:19;;;;;;;2.23;2.03;;;27.60;50.10;;;;;;5087207;28;20601;-48
2022/06/18 00:16:59;;;;;;;2.20;2.07;;;27.60;50.10;;;;;;5042196;27;20558;-49
2022/06/18 00:19:39;;;;;;;2.33;2.23;;;27.60;50.10;;;;;;5126645;27;20521;-50
2022/06/18 00:22:22;;;;;;;2.07;1.90;;;27.60;50.20;;;;;;5086301;27;21207;-47
2022/06/18 00:25:16;;;;;;;2.20;2.00;;;27.60;50.10;;;;;;5092314;27;20584;-49
2022/06/18 00:28:07;;;;;;;2.90;2.30;;;27.60;50.20;;;;;;5047549;28;20518;-48
2022/06/18 00:30:55;;;;;;;2.13;2.03;;;27.60;50.20;;;;;;5039113;28;20554;-48
2022/06/18 00:33:42;;;;;;;2.50;2.40;;;27.60;50.20;;;;;;5045740;28;20508;-49
2022/06/18 00:36:22;;;;;;;2.00;1.90;;;27.60;50.20;;;;;;5097647;27;20591;-48
2022/06/18 00:39:04;;;;;;;2.03;1.93;;;27.60;50.20;;;;;;5108471;27;20564;-48
2022/06/18 00:41:46;;;;;;;2.40;2.20;;;27.60;50.20;;;;;;5061061;27;20583;-49
2022/06/18 00:44:32;;;;;;;2.47;2.37;;;27.60;50.30;;;;;;5120830;27;20530;-49
2022/06/18 00:47:20;;;;;;;2.20;2.00;;;27.60;50.20;;;;;;5079769;27;21105;-49
2022/06/18 00:50:07;;;;;;;2.37;2.00;;;27.60;50.30;;;;;;5087561;27;20546;-51
2022/06/18 00:52:52;;;;;;;2.07;1.97;;;27.60;50.20;;;;;;5127536;27;20567;-50
2022/06/18 00:55:36;;;;;;;2.30;2.10;;;27.60;50.30;;;;;;5051917;28;20543;-48
2022/06/18 00:58:22;;;;;;;2.30;2.20;;;27.60;50.40;;;;;;5081154;28;20578;-49
2022/06/18 01:01:12;;;;;;;2.10;2.00;;;27.60;50.30;;;;;;5054792;27;20545;-49
2022/06/18 01:03:52;;;;;;;2.30;2.10;;;27.60;51.50;;;;;;5077093;28;20932;-47
2022/06/18 01:06:34;;;;;;;1.93;1.83;;;27.60;50.40;;;;;;5078533;27;20567;-49
2022/06/18 01:09:17;;;;;;;2.43;2.33;;;27.60;50.30;;;;;;5078190;27;20535;-49
2022/06/18 01:11:59;;;;;;;2.50;2.30;;;27.60;50.30;;;;;;5055795;27;20558;-50
2022/06/18 01:14:42;;;;;;;2.47;2.30;;;27.60;50.40;;;;;;5077071;28;20918;-49
2022/06/18 01:17:23;;;;;;;2.13;2.03;;;27.60;50.30;;;;;;5087793;28;20527;-47
2022/06/18 01:20:08;;;;;;;2.40;2.20;;;27.60;50.30;;;;;;5039829;27;20591;-50
2022/06/18 01:22:56;;;;;;;2.17;2.03;;;27.60;50.30;;;;;;5087248;28;20590;-48
2022/06/18 01:25:37;;;;;;;2.10;2.00;;;27.60;50.30;;;;;;5063395;27;20679;-49
2022/06/18 01:28:18;;;;;;;2.13;2.03;;;27.60;50.40;;;;;;5128151;27;21035;-50
2022/06/18 01:31:01;;;;;;;2.10;2.00;;;27.60;50.40;;;;;;5077234;27;20549;-47
2022/06/18 01:33:45;;;;;;;2.10;2.00;;;27.60;50.30;;;;;;5108087;27;20538;-50
2022/06/18 01:36:32;;;;;;;1.80;1.70;;;27.60;50.30;;;;;;5071660;27;20541;-49
2022/06/18 01:39:16;;;;;;;3.50;2.00;;;27.60;50.40;;;;;;5061793;28;20540;-49
2022/06/18 01:42:02;;;;;;;1.87;1.77;;;27.60;50.30;;;;;;5005865;27;20553;-49
2022/06/18 01:44:49;;;;;;;1.90;1.80;;;27.60;50.40;;;;;;5091359;27;20872;-49
2022/06/18 01:47:40;;;;;;;2.13;2.03;;;27.60;50.40;;;;;;5095122;27;20523;-50
2022/06/18 01:50:24;;;;;;;2.07;1.97;;;27.60;50.50;;;;;;5074497;28;20596;-49
2022/06/18 01:53:10;;;;;;;2.20;2.10;;;27.60;50.40;;;;;;5142029;27;20516;-50
2022/06/18 01:55:54;;;;;;;2.10;2.00;;;27.60;50.60;;;;;;5056613;27;20681;-50
2022/06/18 01:58:39;;;;;;;2.10;2.00;;;27.60;50.50;;;;;;5094576;27;21068;-47
2022/06/18 02:01:28;;;;;;;2.03;1.93;;;27.60;50.50;;;;;;5065336;27;20549;-47
2022/06/18 02:04:09;;;;;;;2.20;2.10;;;27.50;50.40;;;;;;5084791;28;20531;-49
2022/06/18 02:06:51;;;;;;;2.23;2.10;;;27.60;50.50;;;;;;5082245;27;21101;-51
2022/06/18 02:09:39;;;;;;;2.00;1.90;;;27.50;50.40;;;;;;5084516;28;20528;-49
2022/06/18 02:12:24;;;;;;;2.50;2.00;;;27.60;50.40;;;;;;5095500;27;20858;-47
2022/06/18 02:15:09;;;;;;;1.80;1.70;;;27.50;50.40;;;;;;5065071;28;20961;-49
2022/06/18 02:17:51;;;;;;;2.10;1.90;;;27.50;50.30;;;;;;5128577;27;20574;-49
2022/06/18 02:20:40;;;;;;;2.30;2.20;;;27.50;50.40;;;;;;5078652;28;20559;-49
2022/06/18 02:23:23;;;;;;;2.37;2.20;;;27.50;50.40;;;;;;5086674;28;20519;-49
2022/06/18 02:26:06;;;;;;;1.87;1.77;;;27.50;50.50;;;;;;5117107;27;20540;-49
2022/06/18 02:28:47;;;;;;;1.90;1.80;;;27.50;50.40;;;;;;5116025;27;20529;-48
2022/06/18 02:31:34;;;;;;;1.83;1.67;;;27.50;50.40;;;;;;5072959;27;20578;-49
2022/06/18 02:34:18;;;;;;;4.00;2.23;;;27.50;50.50;;;;;;5078910;27;20674;-50
2022/06/18 02:37:00;;;;;;;2.07;1.90;;;27.50;50.60;;;;;;5048121;27;21053;-48
2022/06/18 02:39:53;;;;;;;2.07;1.97;;;27.50;50.50;;;;;;5092578;27;21054;-52
2022/06/18 02:42:36;;;;;;;2.10;2.00;;;27.50;50.50;;;;;;5095108;27;20595;-49
2022/06/18 02:45:17;;;;;;;1.73;1.63;;;27.50;50.50;;;;;;5064446;28;20555;-48
2022/06/18 02:48:00;;;;;;;2.23;2.13;;;27.50;50.40;;;;;;5087064;27;21094;-48
2022/06/18 02:50:43;;;;;;;1.83;1.60;;;27.50;50.40;;;;;;5101657;27;21067;-50
2022/06/18 02:53:25;;;;;;;1.83;1.73;;;27.50;50.50;;;;;;5081385;27;20602;-48
2022/06/18 02:56:07;;;;;;;2.10;2.00;;;27.50;50.60;;;;;;5071766;28;20655;-50
2022/06/18 02:58:49;;;;;;;1.90;1.80;;;27.50;50.50;;;;;;5136103;27;20528;-50
2022/06/18 03:01:32;;;;;;;2.13;2.03;;;27.50;50.60;;;;;;5064320;27;20544;-48
2022/06/18 03:04:13;;;;;;;2.23;2.13;;;27.50;50.50;;;;;;5079556;27;20534;-48
2022/06/18 03:06:54;;;;;;;2.70;2.50;;;27.50;50.50;;;;;;5060127;27;20590;-49
2022/06/18 03:12:33;;;;;;;2.00;1.90;;;27.50;50.50;;;;;;5087896;28;20532;-49
2022/06/18 03:15:15;;;;;;;2.37;2.17;;;27.40;50.30;;;;;;5117802;27;20555;-49
2022/06/18 03:17:56;;;;;;;1.80;1.70;;;27.40;50.30;;;;;;5087529;28;21038;-50
2022/06/18 03:20:53;;;;;;;1.73;1.63;;;27.40;50.30;;;;;;5108049;27;1269823;-48
2022/06/18 03:23:35;;;;;;;1.70;1.60;;;27.40;50.30;;;;;;5092933;27;20937;-47
2022/06/18 03:26:17;;;;;;;1.90;1.80;;;27.40;50.40;;;;;;5083113;27;20599;-48
2022/06/18 03:29:05;;;;;;;1.60;1.50;;;27.40;50.50;;;;;;5087221;28;20532;-49
2022/06/18 03:31:47;;;;;;;2.43;2.23;;;27.40;50.40;;;;;;5061368;27;20548;-48
2022/06/18 03:34:28;;;;;;;2.23;2.13;;;27.40;50.10;;;;;;5120969;27;20553;-48
2022/06/18 03:37:10;;;;;;;1.80;1.70;;;27.40;50.00;;;;;;5108251;27;20991;-50
2022/06/18 03:39:51;;;;;;;2.43;2.23;;;27.40;49.80;;;;;;5115888;27;20526;-47
2022/06/18 03:42:33;;;;;;;1.80;1.70;;;27.40;49.90;;;;;;5086963;27;20584;-48
2022/06/18 03:45:14;;;;;;;1.97;1.87;;;27.40;49.70;;;;;;5078975;27;20920;-50
2022/06/18 03:47:55;;;;;;;2.10;2.00;;;27.40;49.70;;;;;;5087538;28;20531;-47
2022/06/18 03:50:38;;;;;;;2.20;2.10;;;27.40;49.80;;;;;;5078510;27;20858;-47
2022/06/18 03:53:19;;;;;;;1.83;1.73;;;27.40;50.00;;;;;;5149211;27;20568;-49
2022/06/18 03:56:01;;;;;;;1.83;1.73;;;27.40;49.90;;;;;;5063984;27;20692;-48
2022/06/18 03:58:49;;;;;;;2.20;2.10;;;27.40;49.90;;;;;;5127735;27;20536;-47
2022/06/18 04:01:32;;;;;;;1.70;1.60;;;27.40;49.70;;;;;;5049199;27;20626;-49
2022/06/18 04:04:16;;;;;;;1.87;1.77;;;27.40;49.80;;;;;;5115519;27;21067;-49
2022/06/18 04:07:02;;;;;;;2.40;2.20;;;27.40;49.70;;;;;;5016954;27;20677;-48
2022/06/18 04:09:52;;;;;;;2.03;1.93;;;27.40;51.00;;;;;;5116202;27;20597;-49
2022/06/18 04:12:37;;;;;;;2.10;1.90;;;27.40;49.70;;;;;;5128582;27;20570;-46
2022/06/18 04:15:23;;;;;;;2.50;2.30;;;27.40;50.00;;;;;;5068809;27;20551;-48
2022/06/18 04:18:14;;;;;;;1.77;1.67;;;27.40;49.90;;;;;;5127896;27;20565;-51
2022/06/18 04:20:56;;;;;;;2.10;2.00;;;27.40;49.80;;;;;;5115303;27;20523;-49
2022/06/18 04:23:41;;;;;;;2.43;2.23;;;27.40;49.80;;;;;;5087443;28;20597;-49
2022/06/18 04:26:22;;;;;;;1.97;1.87;;;27.40;50.00;;;;;;5043043;28;20543;-50
2022/06/18 04:29:03;;;;;;;1.97;1.87;;;27.30;49.90;;;;;;5086678;28;20948;-48
2022/06/18 04:31:44;;;;;;;2.23;2.13;;;27.40;50.00;;;;;;5091948;27;20544;-49
2022/06/18 04:34:24;;;;;;;2.17;1.97;;;27.40;50.00;;;;;;5125172;27;20941;-48
2022/06/18 04:37:33;;;;;;;1.80;1.70;;;27.30;50.10;;;;;;5111521;27;20643;-49
2022/06/18 04:40:31;;;;;;;1.63;1.53;;;27.30;50.20;;;;;;5094872;27;20611;-48
2022/06/18 04:43:37;;;;;;;2.40;2.20;;;27.30;50.40;;;;;;5087229;28;20535;-48
2022/06/18 04:46:18;;;;;;;2.90;1.87;;;27.30;50.50;;;;;;5094438;27;20696;-48
2022/06/18 04:49:03;;;;;;;2.23;1.67;;;27.30;50.60;;;;;;5086458;27;20551;-48
2022/06/18 04:51:45;;;;;;;1.67;1.57;;;27.30;50.70;;;;;;5110069;27;20620;-48
2022/06/18 04:54:29;;;;;;;1.80;1.70;;;27.30;50.70;;;;;;5115797;27;20538;-48
2022/06/18 04:57:10;;;;;;;2.30;2.17;;;27.30;50.80;;;;;;5096190;27;21037;-47
2022/06/18 04:59:54;;;;;;;2.40;2.20;;;27.30;50.70;;;;;;5079671;28;20520;-50
2022/06/18 05:02:38;;;;;;;3.23;2.50;;;27.30;51.20;;;;;;5107335;27;20569;-48
2022/06/18 05:05:43;;;;;;;2.90;2.70;;;27.30;50.70;;;;;;5131569;27;20534;-48
2022/06/18 05:08:36;;;;;;;3.83;2.23;;;27.30;50.20;;;;;;5123727;27;20582;-48
2022/06/18 05:11:33;;;;;;;3.07;2.60;;;27.20;49.70;;;;;;5063820;27;20608;-47
2022/06/18 05:14:26;;;;;;;3.40;3.10;;;27.20;49.60;;;;;;5077306;28;20540;-48
2022/06/18 05:17:21;;;;;;;2.60;2.40;;;27.20;49.70;;;;;;5081573;28;20547;-50
2022/06/18 05:20:04;;;;;;;2.70;2.50;;;27.20;49.60;;;;;;5099907;27;21690;-48
2022/06/18 05:22:48;;;;;;;6.10;2.90;;;27.10;49.50;;;;;;5087820;28;20523;-48
2022/06/18 05:25:29;;;;;;;5.30;2.37;;;27.10;49.50;;;;;;5112037;27;20610;-48
2022/06/18 05:28:10;;;;;;;2.70;2.50;;;27.10;49.60;;;;;;5127887;27;21031;-51
2022/06/18 05:30:51;;;;;;;2.60;2.40;;;27.10;49.30;;;;;;5062611;27;20622;-47
2022/06/18 05:33:32;;;;;;;2.70;2.33;;;27.10;49.40;;;;;;5125509;27;20566;-50
2022/06/18 05:36:19;;;;;;;4.20;3.40;;;27.10;49.90;;;;;;5034984;28;20912;-47
2022/06/18 05:39:06;;;;;;;2.93;2.20;;;27.10;50.10;;;;;;5107556;27;20519;-48
2022/06/18 05:41:49;;;;;;;4.13;2.60;;;27.10;50.30;;;;;;5062416;27;20557;-48
2022/06/18 05:44:30;;;;;;;1.87;1.77;;;27.10;50.50;;;;;;5112065;27;20542;-49
2022/06/18 05:47:16;;;;;;;2.20;1.93;;;27.10;50.60;;;;;;5085851;27;20587;-46
2022/06/18 05:49:57;;;;;;;2.57;2.37;;;27.10;50.40;;;;;;5122846;27;20513;-47
2022/06/18 05:52:41;;;;;;;2.40;2.20;;;27.10;50.30;;;;;;5087444;28;20512;-47
2022/06/18 05:55:30;;;;;;;2.60;2.40;;;27.10;50.50;;;;;;5072938;28;20542;-49
2022/06/18 05:58:30;;;;;;;2.40;2.20;;;27.10;50.50;;;;;;5129423;27;20698;-47
2022/06/18 06:01:17;;;;;;;2.80;2.60;;;27.10;50.50;;;;;;5048441;27;20556;-47
2022/06/18 06:03:58;;;;;;;5.50;2.30;;;27.10;50.60;;;;;;5080132;28;20544;-48
2022/06/18 06:06:40;;;;;;;2.43;2.20;;;27.10;50.70;;;;;;5042291;27;21220;-50
2022/06/18 06:12:24;;;;;;;2.77;2.40;;;27.10;51.00;;;;;;5119454;27;20525;-49
2022/06/18 06:15:04;;;;;;;3.03;2.83;;;27.10;51.10;;;;;;5117942;27;21040;-49
2022/06/18 06:17:45;;;;;;;3.00;2.70;;;27.10;51.40;;;;;;5079159;28;20596;-48
2022/06/18 06:20:30;;;;;;;2.93;2.73;;;27.20;51.50;;;;;;5093450;27;20559;-47
2022/06/18 06:23:12;;;;;;;4.53;2.27;;;27.10;51.70;;;;;;5121145;27;20667;-48
2022/06/18 06:25:52;;;;;;;2.73;2.53;;;27.10;51.80;;;;;;5068721;27;20602;-48
2022/06/18 06:28:34;;;;;;;3.20;2.10;;;27.10;51.60;;;;;;5079296;27;20587;-47
2022/06/18 06:31:15;;;;;;;2.83;2.17;;;27.10;52.10;;;;;;5134334;27;20600;-47
2022/06/18 06:33:56;;;;;;;2.70;2.50;;;27.20;52.20;;;;;;5080709;27;20547;-47
2022/06/18 06:36:39;;;;;;;3.00;2.47;;;27.10;52.40;;;;;;5038684;27;20616;-51
2022/06/18 06:39:19;;;;;;;5.47;3.13;;;27.10;52.40;;;;;;5082671;28;20593;-49
2022/06/18 06:41:59;;;;;;;2.73;2.30;;;27.10;53.00;;;;;;5106054;27;20539;-48
2022/06/18 06:44:39;;;;;;;3.40;2.63;;;27.10;52.70;;;;;;5079694;28;20591;-49
2022/06/18 06:47:20;;;;;;;3.27;2.90;;;27.10;53.30;;;;;;5102266;27;20506;-50
2022/06/18 06:50:01;;;;;;;2.70;2.50;;;27.10;53.40;;;;;;5084298;27;20544;-47
2022/06/18 06:52:42;;;;;;;3.00;2.70;;;27.10;52.90;;;;;;5108428;27;20522;-48
2022/06/18 06:58:24;;;;;;;5.43;3.40;;;27.10;53.20;;;;;;5087726;28;20515;-48
2022/06/18 07:01:05;;;;;;;2.80;2.40;;;27.10;53.40;;;;;;5105933;27;20597;-49
2022/06/18 07:03:46;;;;;;;2.40;2.20;;;27.10;53.00;;;;;;5127326;27;20529;-47
2022/06/18 07:06:26;;;;;;;3.60;2.97;;;27.10;53.20;;;;;;5043203;28;20543;-48
2022/06/18 07:09:08;;;;;;;2.73;2.53;;;27.10;53.10;;;;;;5128180;27;20529;-49
2022/06/18 07:11:49;;;;;;;2.90;2.70;;;27.10;53.00;;;;;;5060534;27;20532;-50
2022/06/18 07:14:29;;;;;;;3.43;2.57;;;27.10;53.20;;;;;;5124980;27;20594;-51
2022/06/18 07:17:16;;;;;;;2.90;2.60;;;27.10;53.00;;;;;;5112014;27;20536;-47
2022/06/18 07:19:58;;;;;;;2.80;2.60;;;27.10;52.90;;;;;;5100166;27;20591;-48
2022/06/18 07:22:38;;;;;;;2.90;2.53;;;27.10;52.90;;;;;;5087844;28;20516;-48
2022/06/18 07:25:18;;;;;;;2.83;2.63;;;27.10;52.90;;;;;;5074309;28;20538;-46
2022/06/18 07:27:59;;;;;;;2.30;2.20;;;27.10;52.90;;;;;;5083859;27;21574;-49
2022/06/18 07:30:39;;;;;;;4.17;2.40;;;27.10;52.80;;;;;;5113128;27;20956;-51
2022/06/18 07:33:23;;;;;;;3.87;2.87;;;27.10;52.80;;;;;;5104515;27;20542;-48
2022/06/18 07:36:03;;;;;;;2.57;2.27;;;27.10;52.70;;;;;;5042488;28;20529;-49
2022/06/18 07:38:45;;;;;;;2.40;2.20;;;27.10;52.50;;;;;;5121183;27;20530;-47
2022/06/18 07:41:31;;;;;;;2.50;2.20;;;27.10;52.40;;;;;;5087616;28;20539;-49
2022/06/18 07:44:13;;;;;;;2.00;1.90;;;27.10;52.40;;;;;;5097721;27;20605;-48
2022/06/18 07:46:57;;;;;;;2.10;2.00;;;27.10;52.40;;;;;;5091912;27;20551;-49
2022/06/18 07:49:38;;;;;;;2.40;2.20;;;27.10;52.40;;;;;;5066942;27;20545;-47
2022/06/18 07:52:18;;;;;;;2.17;1.97;;;27.10;52.30;;;;;;5065725;28;21036;-50
2022/06/18 07:54:58;;;;;;;2.20;2.00;;;27.10;52.30;;;;;;5054390;28;20554;-48
2022/06/18 07:57:37;;;;;;;2.80;2.47;;;27.10;52.20;;;;;;5100029;27;20526;-48
2022/06/18 08:00:20;;;;;;;2.23;2.13;;;27.10;52.30;;;;;;5116566;27;20601;-50
2022/06/18 08:03:01;;;;;;;4.10;2.67;;;27.10;52.20;;;;;;5070732;27;20532;-49
2022/06/18 08:05:42;;;;;;;2.70;2.37;;;27.20;52.50;;;;;;5073878;27;20594;-48
2022/06/18 08:08:24;;;;;;;2.80;2.60;;;27.10;52.20;;;;;;5124962;27;20619;-48
2022/06/18 08:11:18;;;;;;;2.13;1.93;;;27.20;52.20;;;;;;5061106;27;21019;-47
2022/06/18 08:13:59;;;;;;;2.67;2.47;;;27.10;52.10;;;;;;5072417;28;20545;-47
2022/06/18 08:16:41;;;;;;;2.07;1.87;;;27.10;52.10;;;;;;5011135;27;20544;-48
2022/06/18 08:19:22;;;;;;;2.50;2.30;;;27.10;52.10;;;;;;5105565;27;20600;-49
2022/06/18 08:22:01;;;;;;;4.47;1.90;;;27.10;52.10;;;;;;5107050;27;20547;-50
2022/06/18 08:24:41;;;;;;;2.50;2.40;;;27.10;52.20;;;;;;5105237;27;21052;-48
2022/06/18 08:27:21;;;;;;;2.90;2.10;;;27.10;52.20;;;;;;5128646;27;20570;-48
2022/06/18 08:30:03;;;;;;;2.90;2.37;;;27.10;53.40;;;;;;5054613;28;20590;-49
2022/06/18 08:32:46;;;;;;;1.90;1.80;;;27.10;52.10;;;;;;5087930;28;20816;-48
2022/06/18 08:35:28;;;;;;;3.20;2.47;;;27.10;52.30;;;;;;5087401;27;20889;-48
2022/06/18 08:38:10;;;;;;;1.73;1.63;;;27.10;52.30;;;;;;5085177;28;21051;-50
2022/06/18 08:41:04;;;;;;;2.27;2.10;;;27.10;52.20;;;;;;5055821;27;20540;-48
2022/06/18 08:43:59;;;;;;;3.77;2.40;;;27.10;52.20;;;;;;5128664;27;20517;-51
2022/06/18 08:46:52;;;;;;;2.50;2.30;;;27.10;52.20;;;;;;5070487;27;20880;-48
2022/06/18 08:49:56;;;;;;;2.60;2.40;;;27.10;52.20;;;;;;5085468;27;21101;-47
2022/06/18 08:52:53;;;;;;;2.47;2.27;;;27.10;52.20;;;;;;5098437;27;20591;-49
2022/06/18 08:55:41;;;;;;;2.53;2.33;;;27.10;52.30;;;;;;5065196;28;20542;-48
2022/06/18 08:58:29;;;;;;;2.10;2.00;;;27.10;52.20;;;;;;5085856;27;20531;-48
2022/06/18 09:01:15;;;;;;;2.33;2.13;;;27.10;52.20;;;;;;5082436;27;20965;-47
2022/06/18 09:04:09;;;;;;;2.57;2.37;;;27.10;52.30;;;;;;5102803;27;20527;-48
2022/06/18 09:07:04;;;;;;;2.85;2.45;;;27.10;52.20;;;;;;5087157;27;1206316;-50
2022/06/18 09:09:54;;;;;;;2.83;2.43;;;27.10;52.20;;;;;;5083340;28;20530;-47
2022/06/18 09:12:40;;;;;;;3.77;2.40;;;27.10;52.20;;;;;;5088172;28;20507;-48
2022/06/18 09:15:29;;;;;;;2.60;2.40;;;27.10;52.10;;;;;;5106366;27;20620;-48
2022/06/18 09:18:14;;;;;;;2.97;2.57;;;27.20;52.10;;;;;;5121069;27;21031;-48
2022/06/18 09:20:57;;;;;;;2.07;1.97;;;27.20;52.10;;;;;;5103033;27;20911;-49
2022/06/18 09:23:47;;;;;;;2.50;2.30;;;27.20;52.10;;;;;;5105617;27;20518;-49
2022/06/18 09:26:33;;;;;;;4.03;2.00;;;27.20;52.00;;;;;;5063697;27;20534;-46
2022/06/18 09:29:18;;;;;;;3.27;2.47;;;27.20;52.10;;;;;;5086412;27;20570;-50
2022/06/18 09:32:07;;;;;;;4.57;2.30;;;27.20;52.10;;;;;;5044100;28;20558;-47
2022/06/18 09:34:52;;;;;;;2.83;2.20;;;27.10;52.10;;;;;;5080022;27;20547;-47
2022/06/18 09:37:39;;;;;;;4.00;2.50;;;27.10;52.10;;;;;;5084319;27;20578;-47
2022/06/18 09:40:26;;;;;;;3.73;2.70;;;27.20;52.20;;;;;;5096473;27;20606;-47
2022/06/18 09:43:12;;;;;;;1.90;1.80;;;27.10;52.10;;;;;;5072454;28;20586;-47
2022/06/18 09:45:57;;;;;;;3.67;2.30;;;27.20;52.20;;;;;;5101362;27;20543;-47
2022/06/18 09:48:39;;;;;;;2.60;2.40;;;27.10;52.10;;;;;;5098874;27;20580;-46
2022/06/18 09:51:27;;;;;;;6.30;2.60;;;27.20;52.20;;;;;;5064790;27;20533;-49
2022/06/18 09:54:10;;;;;;;3.50;2.60;;;27.20;52.20;;;;;;5083949;27;20532;-48
2022/06/18 09:56:55;;;;;;;2.77;2.57;;;27.20;52.20;;;;;;5043903;27;20529;-49
2022/06/18 09:59:40;;;;;;;2.87;2.67;;;27.20;52.10;;;;;;5080326;27;20544;-48
2022/06/18 10:02:26;;;;;;;2.53;2.33;;;27.20;52.20;;;;;;5104662;27;20526;-47
2022/06/18 10:08:16;;;;;;;2.37;2.17;;;27.20;52.00;;;;;;5108551;27;20510;-48
2022/06/18 10:11:07;;;;;;;2.80;2.57;;;27.20;52.00;;;;;;5115449;27;20612;-46
2022/06/18 10:13:56;;;;;;;3.60;2.90;;;27.20;51.90;;;;;;5124446;27;20523;-50
2022/06/18 10:16:50;;;;;;;2.67;2.40;;;27.20;52.00;;;;;;5105836;22;20568;-48
2022/06/18 10:19:38;;;;;;;2.60;2.40;;;27.20;51.90;;;;;;5125181;27;21045;-48
2022/06/18 10:22:26;;;;;;;2.97;2.77;;;27.20;51.90;;;;;;5082355;27;20585;-48
2022/06/18 10:25:19;;;;;;;5.90;2.23;;;27.20;51.90;;;;;;5093003;27;20535;-48
2022/06/18 10:28:07;;;;;;;2.97;2.73;;;27.20;51.80;;;;;;5062995;27;22143;-49
2022/06/18 10:30:56;;;;;;;3.00;2.50;;;27.20;51.90;;;;;;5052357;28;20545;-47
2022/06/18 10:33:44;;;;;;;3.27;2.67;;;27.20;51.90;;;;;;5085942;28;20933;-46
2022/06/18 10:36:31;;;;;;;2.70;2.50;;;27.20;51.80;;;;;;5045785;28;20539;-48
2022/06/18 10:39:20;;;;;;;3.00;2.80;;;27.20;52.00;;;;;;5081208;28;20583;-48
2022/06/18 10:42:17;;;;;;;2.93;2.33;;;27.20;51.90;;;;;;5028909;27;20687;-47
2022/06/18 10:45:10;;;;;;;2.47;2.27;;;27.20;52.00;;;;;;5068679;27;20564;-48
2022/06/18 10:47:53;;;;;;;3.20;2.90;;;27.20;51.80;;;;;;5123782;27;20525;-47
2022/06/18 10:50:43;;;;;;;3.10;2.90;;;27.20;51.90;;;;;;5067132;27;20597;-48
2022/06/18 10:53:26;;;;;;;2.67;2.47;;;27.30;52.20;;;;;;5016758;28;21058;-49
2022/06/18 10:56:16;;;;;;;3.63;2.50;;;27.30;51.80;;;;;;4972819;28;21064;-48
2022/06/18 10:59:01;;;;;;;2.63;2.40;;;27.30;51.70;;;;;;5084295;28;20574;-48
2022/06/18 11:01:44;;;;;;;2.93;2.63;;;27.30;51.70;;;;;;5047455;27;20616;-48
2022/06/18 11:04:28;;;;;;;5.80;2.70;;;27.30;51.70;;;;;;5078289;28;20887;-47
2022/06/18 11:07:12;;;;;;;2.77;2.57;;;27.30;51.70;;;;;;5058844;27;20548;-47
2022/06/18 11:09:57;;;;;;;2.53;2.43;;;27.30;51.80;;;;;;5062129;27;20581;-47
2022/06/18 11:12:40;;;;;;;2.70;2.30;;;27.30;51.80;;;;;;5091694;27;20573;-48
2022/06/18 11:15:27;;;;;;;3.20;2.30;;;27.30;51.80;;;;;;5051759;27;21138;-49
2022/06/18 11:18:16;;;;;;;2.80;2.60;;;27.30;51.70;;;;;;5123929;27;20583;-46
2022/06/18 11:21:00;;;;;;;3.53;2.60;;;27.30;51.80;;;;;;5105672;27;20547;-46
2022/06/18 11:23:48;;;;;;;3.20;2.90;;;27.30;51.80;;;;;;5076165;27;20540;-48
2022/06/18 11:26:57;;;;;;;3.10;2.70;;;27.30;51.70;;;;;;5039479;28;20555;-48
2022/06/18 11:29:41;;;;;;;4.00;3.37;;;27.30;51.70;;;;;;5089544;27;20597;-48
2022/06/18 11:32:24;;;;;;;7.45;3.72;;;27.40;48.70;;;;;;5061381;28;20481;-49
2022/06/18 11:35:19;;;;;;;4.33;3.90;;;27.50;47.50;;;;;;5117961;27;20961;-48
2022/06/18 11:38:01;;;;;;;5.23;3.23;;;27.60;47.90;;;;;;5126491;27;20525;-49
2022/06/18 11:40:51;;;;;;;3.10;2.90;;;27.60;48.30;;;;;;5109672;27;20527;-48
2022/06/18 11:43:42;;;;;;;8.10;3.50;;;27.60;48.50;;;;;;5087526;28;21050;-49
2022/06/18 11:46:28;;;;;;;3.13;2.80;;;27.60;48.70;;;;;;4995343;28;21338;-48
2022/06/18 11:49:16;;;;;;;3.70;3.37;;;27.50;48.80;;;;;;5128247;27;20606;-47
2022/06/18 11:52:03;;;;;;;5.23;3.23;;;27.50;48.90;;;;;;5073887;27;20545;-48
2022/06/18 11:54:55;;;;;;;3.30;2.90;;;27.50;49.10;;;;;;5097163;27;20543;-48
2022/06/18 11:57:40;;;;;;;4.90;3.33;;;27.50;49.30;;;;;;5085569;28;20589;-48
2022/06/18 12:00:24;;;;;;;5.37;2.67;;;27.50;49.40;;;;;;5077960;27;20550;-49
2022/06/18 12:03:15;;;;;;;5.60;3.57;;;27.50;49.50;;;;;;5128762;27;20711;-47
2022/06/18 12:06:05;;;;;;;4.73;3.70;;;27.50;49.50;;;;;;5114480;27;21054;-49
2022/06/18 12:08:47;;;;;;;3.83;3.57;;;27.50;49.60;;;;;;5087000;27;20609;-48
2022/06/18 12:11:42;;;;;;;5.40;3.40;;;27.50;49.70;;;;;;5037342;27;20547;-48
2022/06/18 12:14:30;;;;;;;3.50;3.20;;;27.50;49.90;;;;;;5098675;27;20535;-48
2022/06/18 12:17:16;;;;;;;3.83;3.27;;;27.50;49.90;;;;;;5060653;27;20552;-48
2022/06/18 12:20:02;;;;;;;3.17;2.87;;;27.60;50.20;;;;;;5082578;27;20545;-49
2022/06/18 12:22:47;;;;;;;3.83;2.97;;;27.50;50.10;;;;;;5087856;27;20557;-47
2022/06/18 12:25:43;;;;;;;4.10;3.50;;;27.50;50.20;;;;;;5075585;28;20600;-47
2022/06/18 12:28:35;;;;;;;3.27;3.07;;;27.50;50.20;;;;;;5087385;28;20512;-48
2022/06/18 12:31:21;;;;;;;3.50;3.10;;;27.50;50.20;;;;;;5067825;27;20548;-47
2022/06/18 12:34:08;;;;;;;3.73;3.30;;;27.50;50.30;;;;;;5080993;27;20533;-47
2022/06/18 12:36:56;;;;;;;4.80;2.93;;;27.60;50.30;;;;;;5089301;27;20593;-48
2022/06/18 12:40:24;;;;;;;3.30;3.00;;;27.60;50.40;;;;;;5084741;27;20633;-48
2022/06/18 12:43:12;;;;;;;6.70;3.20;;;27.60;50.50;;;;;;5126016;27;21179;-48
2022/06/18 12:45:59;;;;;;;3.23;2.93;;;27.60;50.50;;;;;;5052691;28;20556;-48
2022/06/18 12:48:54;;;;;;;4.30;2.97;;;27.60;50.50;;;;;;5087049;28;20523;-48
2022/06/18 12:51:43;;;;;;;3.00;2.50;;;27.60;50.60;;;;;;5055036;27;20600;-48
2022/06/18 12:54:38;;;;;;;2.73;2.50;;;27.60;50.50;;;;;;5086723;28;20589;-48
2022/06/18 12:57:26;;;;;;;4.10;2.73;;;27.60;50.70;;;;;;5088022;28;20924;-48
2022/06/18 13:00:13;;;;;;;4.80;2.90;;;27.60;50.60;;;;;;5076673;28;20540;-48
2022/06/18 13:03:28;;;;;;;3.23;2.73;;;27.60;50.70;;;;;;5087903;28;20522;-48
2022/06/18 13:06:20;;;;;;;3.50;3.00;;;27.60;50.70;;;;;;5107250;27;20553;-48
2022/06/18 13:09:11;;;;;;;3.20;2.90;;;27.60;50.70;;;;;;5105050;27;21115;-48
2022/06/18 13:12:16;;;;;;;2.73;2.47;;;27.60;50.70;;;;;;5103398;27;20567;-48
2022/06/18 13:15:12;;;;;;;5.30;3.20;;;27.70;50.90;;;;;;5113452;27;1317947;-49
2022/06/18 13:17:57;;;;;;;2.87;2.67;;;27.60;50.70;;;;;;5086914;27;20942;-48
2022/06/18 13:20:41;;;;;;;3.13;2.93;;;27.70;50.90;;;;;;5080954;27;20543;-48
2022/06/18 13:29:35;;;;;;;3.30;3.00;;;27.70;50.90;;;;;;5086411;28;20511;-48
2022/06/18 13:32:23;;;;;;;3.13;2.83;;;27.70;51.00;;;;;;5081745;27;20611;-47
2022/06/18 13:35:12;;;;;;;2.63;2.43;;;27.70;51.00;;;;;;5108459;27;20572;-48
2022/06/18 13:37:59;;;;;;;3.50;2.80;;;27.70;50.90;;;;;;5087653;28;20516;-48
2022/06/18 13:40:47;;;;;;;3.33;3.03;;;27.80;51.00;;;;;;5073509;27;20551;-48
2022/06/18 13:43:39;;;;;;;3.00;2.80;;;27.70;50.90;;;;;;5087399;27;20522;-48
2022/06/18 13:46:27;;;;;;;3.63;2.63;;;27.70;50.90;;;;;;5041100;27;21318;-47
2022/06/18 13:49:13;;;;;;;3.00;2.80;;;27.80;51.00;;;;;;5087444;27;20527;-47
2022/06/18 13:52:01;;;;;;;3.20;2.90;;;27.80;51.00;;;;;;5107374;27;20542;-48
2022/06/18 13:54:44;;;;;;;5.47;2.90;;;27.80;50.90;;;;;;5070160;28;20548;-49
2022/06/18 13:57:35;;;;;;;3.00;2.50;;;27.80;50.90;;;;;;5072875;28;20521;-47
2022/06/18 14:00:24;;;;;;;3.03;2.57;;;27.80;50.80;;;;;;5098607;27;20551;-48
2022/06/18 14:03:07;;;;;;;4.20;2.80;;;27.80;50.90;;;;;;5087927;27;20507;-46
2022/06/18 14:05:53;;;;;;;3.40;3.20;;;27.80;51.30;;;;;;5062124;28;20532;-48
2022/06/18 14:08:40;;;;;;;3.47;2.80;;;27.90;51.00;;;;;;5128065;27;20570;-47
2022/06/18 14:11:40;;;;;;;4.43;2.80;;;27.90;51.10;;;;;;5128287;27;20599;-48
2022/06/18 14:14:30;;;;;;;3.13;2.93;;;27.90;51.10;;;;;;5078988;28;20526;-47
2022/06/18 14:17:13;;;;;;;3.00;2.70;;;27.90;51.20;;;;;;5090389;27;20530;-48
2022/06/18 14:20:00;;;;;;;3.30;2.80;;;27.90;51.00;;;;;;5086302;27;20534;-47
2022/06/18 14:22:40;;;;;;;3.47;3.20;;;27.90;51.00;;;;;;5107918;27;20510;-47
2022/06/18 14:25:21;;;;;;;2.83;2.40;;;27.90;51.20;;;;;;5067933;28;20548;-48
2022/06/18 14:28:02;;;;;;;3.70;2.80;;;27.90;51.20;;;;;;5087809;27;20526;-48
2022/06/18 14:30:49;;;;;;;2.50;2.30;;;28.00;51.30;;;;;;5098032;27;20547;-48
2022/06/18 14:33:37;;;;;;;3.80;2.50;;;28.00;51.30;;;;;;5135201;27;20666;-47
2022/06/18 14:36:20;;;;;;;3.00;2.70;;;28.00;51.30;;;;;;5094191;27;20613;-48
2022/06/18 14:39:05;;;;;;;2.70;2.50;;;28.00;51.30;;;;;;5088415;27;20545;-49
2022/06/18 14:41:48;;;;;;;3.20;2.90;;;28.00;51.40;;;;;;5036126;27;20595;-49